sensor_id;sensor_type;location;lat;lon;timestamp;P1;durP1;ratioP1;P2;durP2;ratioP2
20729;SDS011;10526;50.850;12.928;2022-12-07T00:03:29;27.15;;;14.52;;
20729;SDS011;10526;50.850;12.928;2022-12-07T00:07:51;27.42;;;14.52;;
20729;SDS011;10526;50.850;12.928;2022-12-07T00:12:13;29.52;;;15.40;;
20729;SDS011;10526;50.850;12.928;2022-12-07T00:16:35;33.13;;;16.48;;
20729;SDS011;10526;50.850;12.928;2022-12-07T00:21:04;32.28;;;17.27;;
20729;SDS011;10526;50.850;12.928;2022-12-07T00:25:32;33.95;;;18.60;;
20729;SDS011;10526;50.850;12.928;2022-12-07T00:29:54;33.90;;;18.02;;
20729;SDS011;10526;50.850;12.928;2022-12-07T00:34:18;36.50;;;17.80;;
20729;SDS011;10526;50.850;12.928;2022-12-07T00:38:41;32.58;;;18.13;;
20729;SDS011;10526;50.850;12.928;2022-12-07T00:43:03;35.38;;;18.77;;
20729;SDS011;10526;50.850;12.928;2022-12-07T00:47:25;34.97;;;18.30;;
20729;SDS011;10526;50.850;12.928;2022-12-07T00:51:48;34.70;;;19.00;;
20729;SDS011;10526;50.850;12.928;2022-12-07T00:56:11;34.55;;;17.95;;
20729;SDS011;10526;50.850;12.928;2022-12-07T01:00:36;33.58;;;18.15;;
20729;SDS011;10526;50.850;12.928;2022-12-07T01:05:00;33.55;;;17.42;;
20729;SDS011;10526;50.850;12.928;2022-12-07T01:09:22;35.15;;;18.45;;
20729;SDS011;10526;50.850;12.928;2022-12-07T01:13:44;37.83;;;18.85;;
20729;SDS011;10526;50.850;12.928;2022-12-07T01:18:07;32.67;;;17.85;;
20729;SDS011;10526;50.850;12.928;2022-12-07T01:22:29;34.13;;;17.38;;
20729;SDS011;10526;50.850;12.928;2022-12-07T01:26:51;35.65;;;17.70;;
20729;SDS011;10526;50.850;12.928;2022-12-07T01:31:13;32.63;;;17.80;;
20729;SDS011;10526;50.850;12.928;2022-12-07T01:35:42;30.25;;;16.08;;
20729;SDS011;10526;50.850;12.928;2022-12-07T01:40:06;32.88;;;16.17;;
20729;SDS011;10526;50.850;12.928;2022-12-07T01:44:29;32.72;;;16.65;;
20729;SDS011;10526;50.850;12.928;2022-12-07T01:48:53;32.35;;;16.65;;
20729;SDS011;10526;50.850;12.928;2022-12-07T01:53:15;34.33;;;17.83;;
20729;SDS011;10526;50.850;12.928;2022-12-07T01:57:43;33.38;;;18.13;;
20729;SDS011;10526;50.850;12.928;2022-12-07T02:02:13;34.90;;;17.33;;
20729;SDS011;10526;50.850;12.928;2022-12-07T02:06:47;37.05;;;17.33;;
20729;SDS011;10526;50.850;12.928;2022-12-07T02:11:09;33.42;;;16.38;;
20729;SDS011;10526;50.850;12.928;2022-12-07T02:15:34;35.28;;;16.77;;
20729;SDS011;10526;50.850;12.928;2022-12-07T02:20:28;32.42;;;16.63;;
20729;SDS011;10526;50.850;12.928;2022-12-07T02:30:00;36.25;;;18.25;;
20729;SDS011;10526;50.850;12.928;2022-12-07T02:34:42;36.70;;;18.65;;
20729;SDS011;10526;50.850;12.928;2022-12-07T02:39:15;37.05;;;18.55;;
20729;SDS011;10526;50.850;12.928;2022-12-07T02:44:03;39.65;;;19.48;;
20729;SDS011;10526;50.850;12.928;2022-12-07T02:48:31;34.45;;;17.80;;
20729;SDS011;10526;50.850;12.928;2022-12-07T02:52:55;35.47;;;18.00;;
20729;SDS011;10526;50.850;12.928;2022-12-07T03:06:49;35.15;;;17.30;;
20729;SDS011;10526;50.850;12.928;2022-12-07T03:11:36;36.10;;;17.83;;
20729;SDS011;10526;50.850;12.928;2022-12-07T03:20:45;35.60;;;15.63;;
20729;SDS011;10526;50.850;12.928;2022-12-07T03:25:11;29.50;;;13.70;;
20729;SDS011;10526;50.850;12.928;2022-12-07T03:29:37;30.83;;;14.52;;
20729;SDS011;10526;50.850;12.928;2022-12-07T03:38:47;29.08;;;14.60;;
20729;SDS011;10526;50.850;12.928;2022-12-07T03:43:45;28.20;;;13.07;;
20729;SDS011;10526;50.850;12.928;2022-12-07T03:52:44;28.63;;;14.40;;
20729;SDS011;10526;50.850;12.928;2022-12-07T03:57:19;23.95;;;10.70;;
20729;SDS011;10526;50.850;12.928;2022-12-07T04:01:43;27.23;;;12.32;;
20729;SDS011;10526;50.850;12.928;2022-12-07T04:06:12;26.38;;;12.10;;
20729;SDS011;10526;50.850;12.928;2022-12-07T04:10:34;22.40;;;11.60;;
20729;SDS011;10526;50.850;12.928;2022-12-07T04:14:56;24.35;;;11.55;;
20729;SDS011;10526;50.850;12.928;2022-12-07T04:19:19;23.33;;;10.90;;
20729;SDS011;10526;50.850;12.928;2022-12-07T04:23:44;23.27;;;10.98;;
20729;SDS011;10526;50.850;12.928;2022-12-07T04:28:06;25.67;;;11.88;;
20729;SDS011;10526;50.850;12.928;2022-12-07T04:32:28;26.42;;;10.43;;
20729;SDS011;10526;50.850;12.928;2022-12-07T04:36:50;20.02;;;9.60;;
20729;SDS011;10526;50.850;12.928;2022-12-07T04:41:12;22.35;;;9.85;;
20729;SDS011;10526;50.850;12.928;2022-12-07T04:45:34;20.27;;;9.70;;
20729;SDS011;10526;50.850;12.928;2022-12-07T04:49:56;20.70;;;9.00;;
20729;SDS011;10526;50.850;12.928;2022-12-07T04:54:18;20.52;;;9.88;;
20729;SDS011;10526;50.850;12.928;2022-12-07T04:58:41;21.80;;;9.90;;
20729;SDS011;10526;50.850;12.928;2022-12-07T05:03:04;22.92;;;9.95;;
20729;SDS011;10526;50.850;12.928;2022-12-07T05:07:26;20.30;;;9.45;;
20729;SDS011;10526;50.850;12.928;2022-12-07T05:11:48;23.63;;;9.77;;
20729;SDS011;10526;50.850;12.928;2022-12-07T05:16:10;19.50;;;10.02;;
20729;SDS011;10526;50.850;12.928;2022-12-07T05:20:32;21.50;;;9.85;;
20729;SDS011;10526;50.850;12.928;2022-12-07T05:25:02;19.30;;;8.77;;
20729;SDS011;10526;50.850;12.928;2022-12-07T05:29:24;20.05;;;9.30;;
20729;SDS011;10526;50.850;12.928;2022-12-07T05:33:46;18.13;;;8.65;;
20729;SDS011;10526;50.850;12.928;2022-12-07T05:38:08;16.27;;;7.85;;
20729;SDS011;10526;50.850;12.928;2022-12-07T05:42:30;17.60;;;8.77;;
20729;SDS011;10526;50.850;12.928;2022-12-07T05:46:52;17.75;;;8.43;;
20729;SDS011;10526;50.850;12.928;2022-12-07T05:51:14;16.83;;;8.15;;
20729;SDS011;10526;50.850;12.928;2022-12-07T05:55:36;17.27;;;7.95;;
20729;SDS011;10526;50.850;12.928;2022-12-07T05:59:58;16.05;;;8.82;;
20729;SDS011;10526;50.850;12.928;2022-12-07T06:04:21;18.75;;;9.00;;
20729;SDS011;10526;50.850;12.928;2022-12-07T06:08:43;18.98;;;9.50;;
20729;SDS011;10526;50.850;12.928;2022-12-07T06:13:05;19.48;;;8.70;;
20729;SDS011;10526;50.850;12.928;2022-12-07T06:17:27;19.67;;;9.73;;
20729;SDS011;10526;50.850;12.928;2022-12-07T06:21:49;22.77;;;9.98;;
20729;SDS011;10526;50.850;12.928;2022-12-07T06:26:11;20.52;;;10.27;;
20729;SDS011;10526;50.850;12.928;2022-12-07T06:30:33;21.58;;;11.40;;
20729;SDS011;10526;50.850;12.928;2022-12-07T06:34:55;22.20;;;12.55;;
20729;SDS011;10526;50.850;12.928;2022-12-07T06:39:17;24.75;;;12.20;;
20729;SDS011;10526;50.850;12.928;2022-12-07T06:43:40;21.02;;;11.93;;
20729;SDS011;10526;50.850;12.928;2022-12-07T06:48:03;24.98;;;12.63;;
20729;SDS011;10526;50.850;12.928;2022-12-07T06:52:25;24.23;;;12.82;;
20729;SDS011;10526;50.850;12.928;2022-12-07T06:56:47;24.85;;;12.65;;
20729;SDS011;10526;50.850;12.928;2022-12-07T07:01:10;25.75;;;13.98;;
20729;SDS011;10526;50.850;12.928;2022-12-07T07:05:38;26.13;;;14.20;;
20729;SDS011;10526;50.850;12.928;2022-12-07T07:10:00;27.10;;;15.23;;
20729;SDS011;10526;50.850;12.928;2022-12-07T07:14:23;26.15;;;14.55;;
20729;SDS011;10526;50.850;12.928;2022-12-07T07:18:45;27.85;;;15.00;;
20729;SDS011;10526;50.850;12.928;2022-12-07T07:23:07;28.50;;;16.10;;
20729;SDS011;10526;50.850;12.928;2022-12-07T07:27:29;29.85;;;17.08;;
20729;SDS011;10526;50.850;12.928;2022-12-07T07:31:51;29.15;;;14.90;;
20729;SDS011;10526;50.850;12.928;2022-12-07T07:36:13;28.48;;;15.50;;
20729;SDS011;10526;50.850;12.928;2022-12-07T07:40:35;29.60;;;16.63;;
20729;SDS011;10526;50.850;12.928;2022-12-07T07:44:57;27.10;;;15.38;;
20729;SDS011;10526;50.850;12.928;2022-12-07T07:49:19;31.63;;;17.02;;
20729;SDS011;10526;50.850;12.928;2022-12-07T07:53:41;36.97;;;17.73;;
20729;SDS011;10526;50.850;12.928;2022-12-07T07:58:03;26.02;;;14.90;;
20729;SDS011;10526;50.850;12.928;2022-12-07T08:02:25;27.27;;;13.85;;
20729;SDS011;10526;50.850;12.928;2022-12-07T08:06:50;27.60;;;15.52;;
20729;SDS011;10526;50.850;12.928;2022-12-07T08:11:12;28.73;;;14.52;;
20729;SDS011;10526;50.850;12.928;2022-12-07T08:15:36;25.48;;;13.70;;
20729;SDS011;10526;50.850;12.928;2022-12-07T08:20:00;25.67;;;14.05;;
20729;SDS011;10526;50.850;12.928;2022-12-07T08:24:23;23.83;;;13.50;;
20729;SDS011;10526;50.850;12.928;2022-12-07T08:28:46;27.50;;;14.27;;
20729;SDS011;10526;50.850;12.928;2022-12-07T08:33:08;26.92;;;12.95;;
20729;SDS011;10526;50.850;12.928;2022-12-07T08:37:32;23.88;;;12.88;;
20729;SDS011;10526;50.850;12.928;2022-12-07T08:41:54;22.15;;;11.98;;
20729;SDS011;10526;50.850;12.928;2022-12-07T08:46:21;16.50;;;8.98;;
20729;SDS011;10526;50.850;12.928;2022-12-07T08:51:02;14.15;;;7.85;;
20729;SDS011;10526;50.850;12.928;2022-12-07T08:55:24;12.80;;;6.07;;
20729;SDS011;10526;50.850;12.928;2022-12-07T08:59:48;15.38;;;6.80;;
20729;SDS011;10526;50.850;12.928;2022-12-07T09:04:10;17.45;;;6.57;;
20729;SDS011;10526;50.850;12.928;2022-12-07T09:08:36;14.10;;;6.75;;
20729;SDS011;10526;50.850;12.928;2022-12-07T09:13:02;15.70;;;7.55;;
20729;SDS011;10526;50.850;12.928;2022-12-07T09:17:24;13.93;;;7.03;;
20729;SDS011;10526;50.850;12.928;2022-12-07T09:21:46;12.95;;;6.85;;
20729;SDS011;10526;50.850;12.928;2022-12-07T09:26:08;13.18;;;7.20;;
20729;SDS011;10526;50.850;12.928;2022-12-07T09:30:31;12.35;;;4.95;;
20729;SDS011;10526;50.850;12.928;2022-12-07T09:35:13;12.90;;;5.13;;
20729;SDS011;10526;50.850;12.928;2022-12-07T09:39:37;11.88;;;5.05;;
20729;SDS011;10526;50.850;12.928;2022-12-07T09:44:12;12.00;;;5.15;;
20729;SDS011;10526;50.850;12.928;2022-12-07T09:48:39;11.13;;;4.93;;
20729;SDS011;10526;50.850;12.928;2022-12-07T09:53:08;11.50;;;4.80;;
20729;SDS011;10526;50.850;12.928;2022-12-07T09:57:48;11.98;;;4.82;;
20729;SDS011;10526;50.850;12.928;2022-12-07T10:02:28;14.73;;;5.88;;
20729;SDS011;10526;50.850;12.928;2022-12-07T10:07:03;12.93;;;5.82;;
20729;SDS011;10526;50.850;12.928;2022-12-07T10:11:25;12.27;;;5.50;;
20729;SDS011;10526;50.850;12.928;2022-12-07T10:20:15;14.75;;;5.85;;
20729;SDS011;10526;50.850;12.928;2022-12-07T10:24:47;15.13;;;5.68;;
20729;SDS011;10526;50.850;12.928;2022-12-07T10:29:17;17.83;;;6.28;;
20729;SDS011;10526;50.850;12.928;2022-12-07T10:33:59;14.35;;;5.82;;
20729;SDS011;10526;50.850;12.928;2022-12-07T10:38:22;12.82;;;5.85;;
20729;SDS011;10526;50.850;12.928;2022-12-07T10:42:49;15.73;;;5.75;;
20729;SDS011;10526;50.850;12.928;2022-12-07T10:52:57;14.55;;;5.95;;
20729;SDS011;10526;50.850;12.928;2022-12-07T11:02:44;12.95;;;5.57;;
20729;SDS011;10526;50.850;12.928;2022-12-07T11:22:14;12.93;;;5.13;;
20729;SDS011;10526;50.850;12.928;2022-12-07T11:41:13;11.90;;;4.97;;
20729;SDS011;10526;50.850;12.928;2022-12-07T11:45:37;13.55;;;4.18;;
20729;SDS011;10526;50.850;12.928;2022-12-07T11:55:01;8.70;;;4.05;;
20729;SDS011;10526;50.850;12.928;2022-12-07T11:59:31;11.80;;;3.95;;
20729;SDS011;10526;50.850;12.928;2022-12-07T12:04:06;14.48;;;4.40;;
20729;SDS011;10526;50.850;12.928;2022-12-07T12:08:33;11.45;;;3.53;;
20729;SDS011;10526;50.850;12.928;2022-12-07T12:13:53;9.55;;;3.58;;
20729;SDS011;10526;50.850;12.928;2022-12-07T12:18:51;10.60;;;3.75;;
20729;SDS011;10526;50.850;12.928;2022-12-07T12:23:41;11.45;;;3.83;;
20729;SDS011;10526;50.850;12.928;2022-12-07T12:33:14;10.90;;;3.65;;
20729;SDS011;10526;50.850;12.928;2022-12-07T12:37:52;14.20;;;3.85;;
20729;SDS011;10526;50.850;12.928;2022-12-07T12:42:19;9.27;;;3.28;;
20729;SDS011;10526;50.850;12.928;2022-12-07T12:46:48;11.25;;;3.92;;
20729;SDS011;10526;50.850;12.928;2022-12-07T12:51:37;8.52;;;3.20;;
20729;SDS011;10526;50.850;12.928;2022-12-07T12:56:07;10.88;;;4.25;;
20729;SDS011;10526;50.850;12.928;2022-12-07T13:00:46;6.80;;;3.25;;
20729;SDS011;10526;50.850;12.928;2022-12-07T13:05:29;7.13;;;3.25;;
20729;SDS011;10526;50.850;12.928;2022-12-07T13:09:52;12.02;;;4.75;;
20729;SDS011;10526;50.850;12.928;2022-12-07T13:24:06;10.43;;;3.60;;
20729;SDS011;10526;50.850;12.928;2022-12-07T13:28:38;15.20;;;5.60;;
20729;SDS011;10526;50.850;12.928;2022-12-07T13:33:08;10.60;;;3.65;;
20729;SDS011;10526;50.850;12.928;2022-12-07T13:37:31;9.55;;;3.10;;
20729;SDS011;10526;50.850;12.928;2022-12-07T13:41:58;12.15;;;3.17;;
20729;SDS011;10526;50.850;12.928;2022-12-07T13:46:40;11.27;;;4.47;;
20729;SDS011;10526;50.850;12.928;2022-12-07T13:51:16;13.55;;;3.50;;
20729;SDS011;10526;50.850;12.928;2022-12-07T13:55:44;10.63;;;3.28;;
20729;SDS011;10526;50.850;12.928;2022-12-07T14:00:27;6.03;;;2.63;;
20729;SDS011;10526;50.850;12.928;2022-12-07T14:04:50;12.55;;;3.30;;
20729;SDS011;10526;50.850;12.928;2022-12-07T14:09:23;8.68;;;2.70;;
20729;SDS011;10526;50.850;12.928;2022-12-07T14:18:29;6.80;;;2.25;;
20729;SDS011;10526;50.850;12.928;2022-12-07T14:22:58;6.40;;;2.70;;
20729;SDS011;10526;50.850;12.928;2022-12-07T14:27:31;8.50;;;3.30;;
20729;SDS011;10526;50.850;12.928;2022-12-07T14:31:58;10.13;;;3.45;;
20729;SDS011;10526;50.850;12.928;2022-12-07T14:36:38;8.43;;;2.95;;
20729;SDS011;10526;50.850;12.928;2022-12-07T14:41:00;13.55;;;3.30;;
20729;SDS011;10526;50.850;12.928;2022-12-07T14:45:41;8.38;;;3.15;;
20729;SDS011;10526;50.850;12.928;2022-12-07T14:50:03;11.80;;;3.00;;
20729;SDS011;10526;50.850;12.928;2022-12-07T14:54:27;5.10;;;2.33;;
20729;SDS011;10526;50.850;12.928;2022-12-07T14:58:53;6.53;;;2.00;;
20729;SDS011;10526;50.850;12.928;2022-12-07T15:03:15;9.00;;;2.55;;
20729;SDS011;10526;50.850;12.928;2022-12-07T15:07:37;6.25;;;2.40;;
20729;SDS011;10526;50.850;12.928;2022-12-07T15:11:59;10.10;;;2.83;;
20729;SDS011;10526;50.850;12.928;2022-12-07T15:16:21;6.60;;;2.15;;
20729;SDS011;10526;50.850;12.928;2022-12-07T15:20:43;10.18;;;2.30;;
20729;SDS011;10526;50.850;12.928;2022-12-07T15:25:06;8.65;;;2.50;;
20729;SDS011;10526;50.850;12.928;2022-12-07T15:29:28;6.53;;;2.28;;
20729;SDS011;10526;50.850;12.928;2022-12-07T15:33:50;6.03;;;2.00;;
20729;SDS011;10526;50.850;12.928;2022-12-07T15:38:12;5.20;;;2.20;;
20729;SDS011;10526;50.850;12.928;2022-12-07T15:42:37;7.43;;;2.95;;
20729;SDS011;10526;50.850;12.928;2022-12-07T15:46:59;8.85;;;2.75;;
20729;SDS011;10526;50.850;12.928;2022-12-07T15:51:21;6.85;;;2.33;;
20729;SDS011;10526;50.850;12.928;2022-12-07T15:55:44;7.07;;;2.25;;
20729;SDS011;10526;50.850;12.928;2022-12-07T16:00:07;7.43;;;2.78;;
20729;SDS011;10526;50.850;12.928;2022-12-07T16:04:31;7.28;;;2.67;;
20729;SDS011;10526;50.850;12.928;2022-12-07T16:08:53;6.95;;;2.55;;
20729;SDS011;10526;50.850;12.928;2022-12-07T16:13:15;7.15;;;2.30;;
20729;SDS011;10526;50.850;12.928;2022-12-07T16:17:40;8.23;;;2.42;;
20729;SDS011;10526;50.850;12.928;2022-12-07T16:22:02;6.03;;;2.33;;
20729;SDS011;10526;50.850;12.928;2022-12-07T16:26:25;7.32;;;2.40;;
20729;SDS011;10526;50.850;12.928;2022-12-07T16:30:47;5.70;;;2.33;;
20729;SDS011;10526;50.850;12.928;2022-12-07T16:35:09;6.45;;;2.72;;
20729;SDS011;10526;50.850;12.928;2022-12-07T16:39:32;7.38;;;2.45;;
20729;SDS011;10526;50.850;12.928;2022-12-07T16:43:55;12.20;;;3.38;;
20729;SDS011;10526;50.850;12.928;2022-12-07T16:48:17;6.78;;;1.83;;
20729;SDS011;10526;50.850;12.928;2022-12-07T16:52:40;6.75;;;2.72;;
20729;SDS011;10526;50.850;12.928;2022-12-07T16:57:02;9.55;;;2.72;;
20729;SDS011;10526;50.850;12.928;2022-12-07T17:01:26;9.65;;;2.47;;
20729;SDS011;10526;50.850;12.928;2022-12-07T17:05:49;5.50;;;2.47;;
20729;SDS011;10526;50.850;12.928;2022-12-07T17:10:11;8.15;;;2.72;;
20729;SDS011;10526;50.850;12.928;2022-12-07T17:14:33;9.52;;;3.20;;
20729;SDS011;10526;50.850;12.928;2022-12-07T17:19:15;7.85;;;2.90;;
20729;SDS011;10526;50.850;12.928;2022-12-07T17:23:38;9.75;;;3.35;;
20729;SDS011;10526;50.850;12.928;2022-12-07T17:28:00;12.85;;;3.15;;
20729;SDS011;10526;50.850;12.928;2022-12-07T17:32:21;9.90;;;2.72;;
20729;SDS011;10526;50.850;12.928;2022-12-07T17:36:43;6.93;;;3.00;;
20729;SDS011;10526;50.850;12.928;2022-12-07T17:41:09;7.78;;;3.25;;
20729;SDS011;10526;50.850;12.928;2022-12-07T17:46:07;8.02;;;3.20;;
20729;SDS011;10526;50.850;12.928;2022-12-07T17:50:30;10.18;;;3.35;;
20729;SDS011;10526;50.850;12.928;2022-12-07T17:55:11;12.38;;;3.67;;
20729;SDS011;10526;50.850;12.928;2022-12-07T17:59:33;9.32;;;3.00;;
20729;SDS011;10526;50.850;12.928;2022-12-07T18:03:55;9.52;;;3.30;;
20729;SDS011;10526;50.850;12.928;2022-12-07T18:08:17;12.85;;;3.45;;
20729;SDS011;10526;50.850;12.928;2022-12-07T18:12:39;14.40;;;3.97;;
20729;SDS011;10526;50.850;12.928;2022-12-07T18:17:01;10.30;;;3.38;;
20729;SDS011;10526;50.850;12.928;2022-12-07T18:21:24;10.77;;;3.40;;
20729;SDS011;10526;50.850;12.928;2022-12-07T18:25:49;9.77;;;3.30;;
20729;SDS011;10526;50.850;12.928;2022-12-07T18:30:11;8.90;;;2.92;;
20729;SDS011;10526;50.850;12.928;2022-12-07T18:34:34;9.35;;;3.08;;
20729;SDS011;10526;50.850;12.928;2022-12-07T18:38:56;10.07;;;3.58;;
20729;SDS011;10526;50.850;12.928;2022-12-07T18:43:18;15.27;;;4.05;;
20729;SDS011;10526;50.850;12.928;2022-12-07T18:47:40;10.10;;;3.38;;
20729;SDS011;10526;50.850;12.928;2022-12-07T18:52:02;11.05;;;3.40;;
20729;SDS011;10526;50.850;12.928;2022-12-07T18:56:25;9.57;;;3.42;;
20729;SDS011;10526;50.850;12.928;2022-12-07T19:00:47;10.57;;;3.78;;
20729;SDS011;10526;50.850;12.928;2022-12-07T19:05:09;11.77;;;4.20;;
20729;SDS011;10526;50.850;12.928;2022-12-07T19:09:31;12.30;;;4.10;;
20729;SDS011;10526;50.850;12.928;2022-12-07T19:13:53;13.52;;;4.38;;
20729;SDS011;10526;50.850;12.928;2022-12-07T19:18:15;10.27;;;4.13;;
20729;SDS011;10526;50.850;12.928;2022-12-07T19:22:37;9.95;;;4.10;;
20729;SDS011;10526;50.850;12.928;2022-12-07T19:26:59;12.10;;;4.60;;
20729;SDS011;10526;50.850;12.928;2022-12-07T19:31:21;12.48;;;3.42;;
20729;SDS011;10526;50.850;12.928;2022-12-07T19:35:43;10.50;;;3.63;;
20729;SDS011;10526;50.850;12.928;2022-12-07T19:40:05;10.52;;;4.13;;
20729;SDS011;10526;50.850;12.928;2022-12-07T19:44:28;10.88;;;3.67;;
20729;SDS011;10526;50.850;12.928;2022-12-07T19:48:50;12.98;;;4.13;;
20729;SDS011;10526;50.850;12.928;2022-12-07T19:53:15;17.55;;;6.85;;
20729;SDS011;10526;50.850;12.928;2022-12-07T19:57:37;14.48;;;4.60;;
20729;SDS011;10526;50.850;12.928;2022-12-07T20:02:00;11.55;;;5.40;;
20729;SDS011;10526;50.850;12.928;2022-12-07T20:06:22;12.23;;;4.63;;
20729;SDS011;10526;50.850;12.928;2022-12-07T20:10:45;11.35;;;4.43;;
20729;SDS011;10526;50.850;12.928;2022-12-07T20:15:26;12.32;;;5.00;;
20729;SDS011;10526;50.850;12.928;2022-12-07T20:19:48;11.93;;;4.50;;
20729;SDS011;10526;50.850;12.928;2022-12-07T20:24:12;12.02;;;4.78;;
20729;SDS011;10526;50.850;12.928;2022-12-07T20:28:40;11.02;;;4.22;;
20729;SDS011;10526;50.850;12.928;2022-12-07T20:33:05;10.68;;;4.50;;
20729;SDS011;10526;50.850;12.928;2022-12-07T20:37:30;11.80;;;4.32;;
20729;SDS011;10526;50.850;12.928;2022-12-07T20:41:54;11.73;;;4.55;;
20729;SDS011;10526;50.850;12.928;2022-12-07T20:46:35;11.40;;;4.63;;
20729;SDS011;10526;50.850;12.928;2022-12-07T20:51:03;10.57;;;4.53;;
20729;SDS011;10526;50.850;12.928;2022-12-07T20:55:26;12.30;;;4.32;;
20729;SDS011;10526;50.850;12.928;2022-12-07T20:59:48;9.82;;;3.28;;
20729;SDS011;10526;50.850;12.928;2022-12-07T21:04:17;13.57;;;4.82;;
20729;SDS011;10526;50.850;12.928;2022-12-07T21:08:58;9.60;;;3.75;;
20729;SDS011;10526;50.850;12.928;2022-12-07T21:13:21;11.05;;;4.07;;
20729;SDS011;10526;50.850;12.928;2022-12-07T21:17:46;12.77;;;4.28;;
20729;SDS011;10526;50.850;12.928;2022-12-07T21:22:08;12.25;;;4.88;;
20729;SDS011;10526;50.850;12.928;2022-12-07T21:26:33;13.07;;;4.82;;
20729;SDS011;10526;50.850;12.928;2022-12-07T21:30:57;12.68;;;4.78;;
20729;SDS011;10526;50.850;12.928;2022-12-07T21:35:36;12.77;;;4.68;;
20729;SDS011;10526;50.850;12.928;2022-12-07T21:40:03;10.52;;;4.82;;
20729;SDS011;10526;50.850;12.928;2022-12-07T21:44:28;15.15;;;5.72;;
20729;SDS011;10526;50.850;12.928;2022-12-07T21:48:52;14.77;;;5.35;;
20729;SDS011;10526;50.850;12.928;2022-12-07T21:53:23;20.70;;;7.72;;
20729;SDS011;10526;50.850;12.928;2022-12-07T21:57:45;14.07;;;5.63;;
20729;SDS011;10526;50.850;12.928;2022-12-07T22:02:11;15.98;;;6.20;;
20729;SDS011;10526;50.850;12.928;2022-12-07T22:06:36;12.68;;;5.20;;
20729;SDS011;10526;50.850;12.928;2022-12-07T22:11:00;16.80;;;5.97;;
20729;SDS011;10526;50.850;12.928;2022-12-07T22:15:26;14.32;;;6.53;;
20729;SDS011;10526;50.850;12.928;2022-12-07T22:19:57;15.30;;;6.30;;
20729;SDS011;10526;50.850;12.928;2022-12-07T22:24:19;14.30;;;6.35;;
20729;SDS011;10526;50.850;12.928;2022-12-07T22:28:42;13.00;;;5.60;;
20729;SDS011;10526;50.850;12.928;2022-12-07T22:33:07;16.52;;;6.68;;
20729;SDS011;10526;50.850;12.928;2022-12-07T22:37:38;12.20;;;6.20;;
20729;SDS011;10526;50.850;12.928;2022-12-07T22:42:01;13.73;;;6.30;;
20729;SDS011;10526;50.850;12.928;2022-12-07T22:46:23;14.82;;;6.43;;
20729;SDS011;10526;50.850;12.928;2022-12-07T22:50:45;13.73;;;6.43;;
20729;SDS011;10526;50.850;12.928;2022-12-07T22:55:08;13.30;;;6.20;;
20729;SDS011;10526;50.850;12.928;2022-12-07T22:59:33;14.38;;;6.28;;
20729;SDS011;10526;50.850;12.928;2022-12-07T23:03:58;14.10;;;6.57;;
20729;SDS011;10526;50.850;12.928;2022-12-07T23:08:23;15.63;;;6.30;;
20729;SDS011;10526;50.850;12.928;2022-12-07T23:12:45;16.00;;;7.00;;
20729;SDS011;10526;50.850;12.928;2022-12-07T23:17:26;13.82;;;6.55;;
20729;SDS011;10526;50.850;12.928;2022-12-07T23:21:49;14.50;;;6.40;;
20729;SDS011;10526;50.850;12.928;2022-12-07T23:26:13;14.00;;;5.90;;
20729;SDS011;10526;50.850;12.928;2022-12-07T23:30:36;13.55;;;5.70;;
20729;SDS011;10526;50.850;12.928;2022-12-07T23:34:58;17.90;;;6.10;;
20729;SDS011;10526;50.850;12.928;2022-12-07T23:39:24;12.65;;;6.05;;
20729;SDS011;10526;50.850;12.928;2022-12-07T23:43:46;16.70;;;7.28;;
20729;SDS011;10526;50.850;12.928;2022-12-07T23:48:08;16.85;;;7.13;;
20729;SDS011;10526;50.850;12.928;2022-12-07T23:52:30;14.25;;;7.10;;
20729;SDS011;10526;50.850;12.928;2022-12-07T23:56:56;16.15;;;8.38;;
